Last 24 Hours

Pinyon

10 Minute Data | America/Los_Angeles
as of 5/5/26 3:26 AM PDT
Date & Time Temp (°F) Dew Pt (°F) RH (%) Wind Spd (mph) Wind Dir (°) Wind Gust (mph) Wind Gst Dir (°) Daily Max Temp (°F) Daily Min Temp (°F)
5/5/26 - 0320 40.9 38.8 92 18.0 NW | 324 27.8 NW | 318 42.8 40.8
5/5/26 - 0310 41.2 38.4 90 18.0 NNW | 329 26.3 NW | 322 42.8 41.1
5/5/26 - 0300 41.8 38.1 86 17.4 NNW | 336 26.2 NNW | 334 42.8 41.4
5/5/26 - 0250 42.1 38.3 86 16.4 NNW | 335 23.9 NW | 322 42.8 41.6
5/5/26 - 0240 42.1 38.4 87 13.8 NNW | 341 23.9 NNW | 341 42.8 41.6
5/5/26 - 0230 42.0 38.5 87 15.2 NNW | 346 21.6 NNW | 348 42.8 41.6
5/5/26 - 0220 41.8 38.5 88 20.3 NNW | 336 32.1 NNW | 339 42.8 41.6
5/5/26 - 0210 41.8 38.3 87 21.2 NNW | 333 31.7 NNW | 343 42.8 41.6
5/5/26 - 0200 41.9 38.2 87 20.1 NNW | 331 28.1 NNW | 328 42.8 41.8
5/5/26 - 0150 42.1 38.5 87 18.3 NW | 325 26.0 NW | 326 42.8 42.0
5/5/26 - 0140 42.2 38.6 87 19.5 NW | 324 28.5 NW | 319 42.8 42.0
5/5/26 - 0130 42.6 38.5 85 19.1 NNW | 327 28.2 NNW | 331 42.8 42.4
5/5/26 - 0120 42.7 38.4 85 18.5 NW | 324 27.8 NW | 318 42.8 42.4
5/5/26 - 0110 42.4 38.7 86 18.0 NW | 325 26.8 NNW | 335 42.5 42.4
5/5/26 - 0100 42.9 38.1 83 16.8 NW | 325 26.1 NW | 322 55.0 42.5
5/5/26 - 0050 43.3 37.9 81 14.3 NNW | 330 25.4 NW | 323 55.0 42.5
5/5/26 - 0040 43.2 38.1 82 14.1 NNW | 329 21.9 NNW | 330 55.0 42.5
5/5/26 - 0030 43.6 38.0 80 15.4 NNW | 330 25.1 NNW | 338 55.0 42.5
5/5/26 - 0020 43.7 38.1 80 15.1 NW | 324 27.0 NNW | 328 55.0 42.5
5/5/26 - 0010 43.6 38.1 81 15.8 NW | 326 25.4 NW | 317 55.0 42.5
5/5/26 - 0000 43.4 38.2 82 18.4 NW | 326 28.6 NNW | 327 55.0 42.5
5/4/26 - 2350 43.4 38.3 82 18.3 NNW | 328 28.2 NW | 319 55.0 42.5
5/4/26 - 2340 43.6 38.2 81 18.5 NNW | 335 27.2 NNW | 337 55.0 42.5
5/4/26 - 2330 43.3 38.5 83 19.0 NNW | 332 26.7 NNW | 333 55.0 42.5
5/4/26 - 2320 42.9 38.7 85 18.1 NNW | 329 25.9 NNW | 334 55.0 42.5
5/4/26 - 2310 42.8 38.7 85 17.5 NNW | 337 27.4 N | 351 55.0 42.5
5/4/26 - 2300 42.6 38.6 86 16.2 NNW | 341 23.8 NNW | 332 55.0 42.5
5/4/26 - 2250 42.7 38.7 86 17.0 NNW | 339 25.4 NNW | 329 55.0 42.6
5/4/26 - 2240 43.0 39.1 86 19.8 NNW | 338 28.9 NNW | 344 55.0 42.6
5/4/26 - 2230 43.0 39.3 87 20.2 NNW | 340 32.3 NNW | 345 55.0 42.6
5/4/26 - 2220 43.1 39.3 86 20.6 NNW | 337 29.6 NNW | 339 55.0 42.6
5/4/26 - 2210 43.5 39.0 84 23.6 NNW | 336 33.8 NNW | 341 55.0 42.6
5/4/26 - 2200 43.9 38.9 83 22.1 NNW | 336 31.3 NNW | 339 55.0 42.6
5/4/26 - 2150 44.7 38.1 78 22.8 NNW | 336 34.6 NNW | 337 55.0 42.6
5/4/26 - 2140 44.8 38.0 77 23.6 NNW | 337 34.5 NNW | 347 55.0 42.6
5/4/26 - 2130 45.0 38.0 76 21.9 NNW | 334 31.6 NNW | 341 55.0 42.6
5/4/26 - 2120 44.9 38.2 77 20.3 NNW | 331 29.6 NW | 324 55.0 42.6
5/4/26 - 2110 45.1 38.3 77 20.2 NW | 326 29.2 NW | 318 55.0 42.6
5/4/26 - 2100 45.3 38.5 77 20.0 NNW | 327 31.0 NNW | 327 55.0 42.6
5/4/26 - 2050 45.4 38.8 78 19.4 NNW | 329 28.6 NNW | 331 55.0 42.6
5/4/26 - 2040 45.6 39.2 78 18.9 NNW | 327 28.0 NNW | 330 55.0 42.6
5/4/26 - 2030 45.7 39.7 79 19.4 NNW | 330 28.2 NW | 322 55.0 42.6
5/4/26 - 2020 45.9 39.8 79 19.5 NNW | 332 28.4 NW | 320 55.0 42.6
5/4/26 - 2010 46.1 39.8 79 18.7 NNW | 333 27.8 NNW | 337 55.0 42.6
5/4/26 - 2000 46.0 39.9 79 20.9 NNW | 330 30.6 NNW | 332 55.0 42.6
5/4/26 - 1950 46.0 40.1 80 19.1 NNW | 329 29.9 N | 349 55.0 42.6
5/4/26 - 1940 45.9 40.4 81 20.3 NNW | 327 29.2 NW | 320 55.0 42.6
5/4/26 - 1930 46.1 40.5 81 20.9 NNW | 327 33.4 NNW | 328 55.0 42.6
5/4/26 - 1920 46.6 40.3 79 22.9 NNW | 329 33.7 NNW | 331 55.0 42.6
5/4/26 - 1910 47.1 40.3 77 22.3 NNW | 331 36.8 NNW | 327 55.0 42.6
5/4/26 - 1900 47.9 40.0 74 23.3 NNW | 329 34.4 NNW | 336 55.0 42.6
5/4/26 - 1850 49.1 39.4 69 21.4 NNW | 330 33.5 NW | 324 55.0 42.6
5/4/26 - 1840 49.5 38.9 67 21.2 NNW | 334 30.5 NNW | 333 55.0 42.6
5/4/26 - 1830 49.7 36.6 60 19.9 NNW | 343 30.3 N | 353 55.0 42.6
5/4/26 - 1820 50.2 36.0 58 22.2 NNW | 344 35.4 NNW | 346 55.0 42.6
5/4/26 - 1810 50.7 35.9 57 22.2 NNW | 342 33.4 NNW | 347 55.0 42.6
5/4/26 - 1800 51.1 35.8 56 21.4 NNW | 343 32.5 NW | 326 55.0 42.6
5/4/26 - 1750 51.1 36.1 56 21.6 NNW | 345 34.0 N | 351 55.0 42.6
5/4/26 - 1740 51.6 36.4 56 20.5 NNW | 341 33.3 NNW | 334 55.0 42.6
5/4/26 - 1730 51.8 36.3 55 19.0 NNW | 345 31.5 NNW | 347 55.0 42.6
5/4/26 - 1720 51.9 36.2 55 19.4 NNW | 342 28.3 NW | 325 55.0 42.6
5/4/26 - 1710 51.5 36.5 56 20.3 NNW | 333 29.7 NNW | 341 55.0 42.6
5/4/26 - 1700 52.1 36.4 55 20.1 NNW | 338 29.9 N | 352 55.0 42.6
5/4/26 - 1650 52.4 36.5 55 19.1 NNW | 337 30.6 NNW | 335 55.0 42.6
5/4/26 - 1640 52.9 36.5 54 20.2 NNW | 338 31.8 NNW | 331 55.0 42.6
5/4/26 - 1630 53.8 36.6 52 19.3 NNW | 342 30.8 NNW | 335 55.0 42.6
5/4/26 - 1620 53.6 36.6 52 20.6 NNW | 333 30.8 NW | 326 55.0 42.6
5/4/26 - 1610 53.2 36.9 54 22.6 NNW | 328 31.9 NW | 318 55.0 42.6
5/4/26 - 1600 52.5 36.4 54 23.4 NNW | 333 34.0 NNW | 331 55.0 42.6
5/4/26 - 1550 52.8 36.6 54 22.0 NNW | 335 36.2 NNW | 334 55.0 42.6
5/4/26 - 1540 52.7 36.4 54 25.1 NNW | 336 37.5 NNW | 348 55.0 42.6
5/4/26 - 1530 52.6 37.0 55 25.5 NNW | 333 37.0 NW | 320 55.0 42.6
5/4/26 - 1520 53.0 36.4 53 26.2 NNW | 338 37.6 NNW | 341 55.0 42.6
5/4/26 - 1510 54.2 36.0 50 25.0 NNW | 347 37.8 NNE | 13 55.0 42.6
5/4/26 - 1500 54.1 36.0 50 24.1 NNW | 339 34.8 NNW | 338 55.0 42.6
5/4/26 - 1450 53.9 36.6 52 23.9 NNW | 340 35.7 NW | 326 54.8 42.6
5/4/26 - 1440 52.7 36.2 53 25.1 NNW | 337 35.9 NNW | 348 54.4 42.6
5/4/26 - 1430 52.5 35.7 53 27.4 NNW | 337 38.5 NW | 313 54.4 42.6
5/4/26 - 1420 52.5 36.1 53 25.8 NNW | 336 37.5 NW | 324 54.4 42.6
5/4/26 - 1410 52.8 35.7 52 26.4 NNW | 335 37.8 N | 1 53.7 42.6
5/4/26 - 1400 52.8 35.2 51 26.3 NNW | 337 39.3 NNW | 337 53.7 42.6
5/4/26 - 1350 52.6 35.2 51 25.3 NNW | 332 38.2 NNW | 335 53.7 42.6
5/4/26 - 1340 51.5 35.3 54 25.2 NNW | 331 34.9 NNW | 328 52.4 42.6
5/4/26 - 1330 51.4 35.9 55 24.8 NNW | 333 36.8 NNW | 334 52.4 42.6
5/4/26 - 1320 50.9 35.4 55 25.8 NNW | 340 38.9 NNW | 336 51.3 42.6
5/4/26 - 1310 50.6 35.5 56 25.1 NNW | 331 37.3 NW | 320 51.0 42.6
5/4/26 - 1300 50.2 35.9 58 26.6 NNW | 330 36.5 NW | 320 50.6 42.6
5/4/26 - 1250 50.2 36.0 58 26.6 NNW | 334 39.4 NNW | 336 50.6 42.6
5/4/26 - 1240 49.9 35.9 58 26.6 NNW | 339 38.5 NNW | 343 50.4 42.6
5/4/26 - 1230 49.7 35.4 58 26.9 NNW | 334 37.7 NNW | 339 50.4 42.6
5/4/26 - 1220 49.4 35.8 59 25.1 NNW | 328 35.7 NW | 326 50.4 42.6
5/4/26 - 1210 49.5 36.3 60 25.0 NNW | 333 36.4 NNW | 341 50.4 42.6
5/4/26 - 1200 49.7 36.3 60 23.8 NNW | 331 34.1 N | 351 50.4 42.6
5/4/26 - 1150 49.7 35.7 58 22.6 NNW | 333 33.1 NW | 316 50.2 42.6
5/4/26 - 1140 49.2 35.5 59 23.4 NNW | 335 36.4 NNW | 337 49.7 42.6
5/4/26 - 1130 48.6 35.5 60 25.5 NW | 326 36.0 NNW | 334 48.9 42.6
5/4/26 - 1120 48.3 35.5 61 25.4 NNW | 330 35.2 NNW | 338 48.6 42.6
5/4/26 - 1110 48.2 35.8 62 22.9 NNW | 335 33.2 NNW | 330 48.6 42.6
5/4/26 - 1100 47.6 35.8 63 22.2 NNW | 332 32.1 NNW | 342 47.8 42.6
5/4/26 - 1050 47.3 36.0 65 23.3 NNW | 329 34.9 NNW | 333 47.6 42.6
5/4/26 - 1040 47.2 36.5 66 21.1 NNW | 331 31.2 NNW | 332 47.6 42.6
5/4/26 - 1030 46.8 36.7 68 20.7 NW | 326 31.0 NW | 319 47.1 42.6
5/4/26 - 1020 46.3 36.4 68 20.1 NW | 325 30.5 NW | 318 46.6 42.6
5/4/26 - 1010 46.2 35.7 67 23.2 NNW | 329 32.3 NW | 325 46.3 42.6
5/4/26 - 1000 45.9 35.4 66 22.2 NW | 325 32.7 NW | 320 46.2 42.6
5/4/26 - 0950 45.3 35.5 68 22.6 NNW | 327 33.5 NNW | 345 45.6 42.6
5/4/26 - 0940 44.9 35.4 69 22.8 NNW | 327 32.3 NNW | 328 45.1 42.6
5/4/26 - 0930 44.5 35.4 70 22.0 NNW | 328 31.4 NNW | 342 44.7 42.6
5/4/26 - 0920 44.3 35.2 70 21.9 NNW | 328 33.8 NNW | 332 44.5 42.6
5/4/26 - 0910 44.1 35.8 72 22.0 NNW | 330 30.3 NW | 318 44.3 42.6
5/4/26 - 0900 44.1 36.2 73 21.4 NNW | 329 30.8 NNW | 332 44.3 42.6
5/4/26 - 0850 44.1 35.9 73 21.3 NNW | 329 31.9 NNW | 331 44.3 42.6
5/4/26 - 0840 44.2 35.3 71 20.8 NNW | 328 29.2 NNW | 332 44.3 42.6
5/4/26 - 0830 44.1 35.6 72 19.3 NW | 324 28.7 NW | 324 44.3 42.6
5/4/26 - 0820 44.1 35.7 72 21.0 NW | 322 29.4 NNW | 327 44.1 42.6
5/4/26 - 0810 44.0 35.5 72 18.4 NW | 323 26.2 NW | 322 44.1 42.6
5/4/26 - 0800 43.9 35.7 73 19.2 NW | 323 25.1 NW | 322 44.1 42.6
5/4/26 - 0750 43.7 35.6 73 19.1 NW | 323 27.0 NW | 313 44.1 42.6
5/4/26 - 0740 43.5 35.7 74 19.0 NNW | 327 27.6 NNW | 333 44.1 42.6
5/4/26 - 0730 43.3 36.0 75 18.0 NNW | 328 25.4 NNW | 331 44.1 42.6
5/4/26 - 0720 43.1 36.5 77 17.8 NNW | 331 26.4 NW | 321 44.1 42.6
5/4/26 - 0710 43.1 36.7 78 17.8 NNW | 331 27.2 NNW | 337 44.1 42.6
5/4/26 - 0700 43.2 36.6 77 18.3 NNW | 330 26.3 NNW | 341 44.1 42.6
5/4/26 - 0650 43.3 36.1 75 19.7 NW | 326 28.3 NW | 324 44.1 42.6
5/4/26 - 0640 43.2 35.9 75 19.8 NNW | 330 26.4 NNW | 330 44.1 42.6
5/4/26 - 0630 43.0 36.1 76 19.5 NNW | 331 30.8 NNW | 335 44.1 42.6
5/4/26 - 0620 42.9 36.1 77 19.5 NNW | 332 28.4 NNW | 329 44.1 42.6
5/4/26 - 0610 43.0 36.0 76 20.4 NNW | 332 30.3 NNW | 341 44.1 42.6
5/4/26 - 0600 42.9 36.1 77 20.0 NNW | 332 28.4 NNW | 337 44.1 42.6
5/4/26 - 0550 42.7 36.4 78 19.0 NNW | 330 30.9 NNW | 330 44.1 42.6
5/4/26 - 0540 42.6 36.6 79 19.2 NNW | 332 27.4 NNW | 329 44.1 42.6
5/4/26 - 0530 42.7 36.2 78 20.2 NNW | 330 29.1 NNW | 332 44.1 42.6
5/4/26 - 0520 42.8 35.9 76 19.6 NNW | 331 28.7 NNW | 343 44.1 42.6
5/4/26 - 0510 42.7 35.6 76 17.7 NNW | 333 26.4 NNW | 332 44.1 42.6
5/4/26 - 0500 42.8 35.3 75 19.1 NNW | 337 28.4 NNW | 343 44.1 42.7
5/4/26 - 0450 42.9 35.1 74 21.0 NNW | 337 30.8 NNW | 344 44.1 42.7
5/4/26 - 0440 42.8 35.1 74 20.7 NNW | 336 32.1 NNW | 342 44.1 42.7
5/4/26 - 0430 43.0 35.1 73 20.0 NNW | 337 29.5 N | 349 44.1 42.8
5/4/26 - 0420 43.1 35.2 73 19.3 NNW | 335 27.7 NW | 322 44.1 43.0
5/4/26 - 0410 43.2 35.4 74 19.1 NNW | 334 30.1 NNW | 334 44.1 43.1
5/4/26 - 0400 43.3 35.4 73 18.0 NNW | 335 26.1 NW | 317 44.1 43.3
5/4/26 - 0350 43.4 35.4 73 18.4 NNW | 333 29.6 NNW | 339 44.1 43.3
5/4/26 - 0340 43.6 35.4 73 20.8 NNW | 332 31.4 NNW | 340 44.1 43.4
5/4/26 - 0330 43.5 35.8 74 20.2 NNW | 334 32.4 NNW | 339 44.1 43.4
5/4/26 - 0320 43.6 35.8 74 19.7 NNW | 336 29.7 NNW | 340 44.1 43.4
Max 54.2 40.5 92 27.4 - 39.4 - 55.0 43.4
Avg 46.3 37.0 71 20.8 - 30.9 - - -
Min 40.9 35.1 50 13.8 - 21.6 - 42.5 40.8